createdAt,value
2022-07-29T00:02:16.933Z,89.22
2022-07-29T00:04:43.725Z,88.63
2022-07-29T00:07:10.466Z,87.87
2022-07-29T00:09:41.953Z,87.29
2022-07-29T00:12:25.108Z,87.43
2022-07-29T00:14:56.239Z,87.39
2022-07-29T00:17:26.425Z,87.20
2022-07-29T00:19:53.573Z,87.44
2022-07-29T00:22:20.928Z,87.58
2022-07-29T00:24:50.919Z,89.12
2022-07-29T00:27:18.398Z,89.04
2022-07-29T00:29:45.411Z,89.41
2022-07-29T00:32:12.182Z,89.95
2022-07-29T00:34:57.273Z,89.86
2022-07-29T00:37:24.107Z,89.24
2022-07-29T00:39:51.358Z,88.77
2022-07-29T00:42:18.065Z,88.32
2022-07-29T00:44:44.832Z,88.85
2022-07-29T00:47:12.774Z,88.87
2022-07-29T00:49:41.511Z,89.01
2022-07-29T00:52:10.171Z,89.64
2022-07-29T00:54:39.829Z,90.10
2022-07-29T00:57:12.514Z,90.24
2022-07-29T00:59:39.279Z,90.73
2022-07-29T01:02:06.125Z,90.53
2022-07-29T01:04:33.251Z,90.16
2022-07-29T01:07:02.531Z,89.51
2022-07-29T01:09:42.120Z,89.40
2022-07-29T01:12:14.688Z,89.75
2022-07-29T01:14:42.052Z,89.80
2022-07-29T01:17:15.038Z,89.87
2022-07-29T01:20:00.545Z,89.80
2022-07-29T01:22:50.393Z,89.47
2022-07-29T01:25:46.547Z,89.46
2022-07-29T01:28:36.017Z,90.49
2022-07-29T01:31:06.284Z,91.21
2022-07-29T01:33:51.453Z,91.80
2022-07-29T01:36:30.077Z,91.79
2022-07-29T01:39:15.288Z,91.59
2022-07-29T01:41:51.723Z,91.79
2022-07-29T01:44:27.970Z,92.10
2022-07-29T01:46:59.132Z,92.42
2022-07-29T01:49:29.673Z,92.74
2022-07-29T01:52:12.089Z,92.71
2022-07-29T01:54:46.844Z,92.91
2022-07-29T01:57:18.344Z,92.91
2022-07-29T01:59:47.861Z,92.69
2022-07-29T02:02:17.429Z,92.93
2022-07-29T02:04:49.351Z,93.63
2022-07-29T02:07:20.460Z,94.42
2022-07-29T02:09:50.270Z,94.53
2022-07-29T02:12:20.120Z,94.76
2022-07-29T02:14:50.088Z,95.15
2022-07-29T02:17:23.557Z,95.32
2022-07-29T02:19:51.258Z,95.85
2022-07-29T02:22:20.651Z,95.64
2022-07-29T02:24:50.241Z,96.11
2022-07-29T02:27:18.924Z,96.64
2022-07-29T02:29:48.299Z,97.98
2022-07-29T02:32:17.041Z,98.43
2022-07-29T02:34:45.732Z,98.58
2022-07-29T02:37:13.842Z,99.20
2022-07-29T02:39:43.170Z,99.41
2022-07-29T02:42:18.222Z,99.40
2022-07-29T02:44:45.133Z,98.87
2022-07-29T02:47:16.355Z,99.38
2022-07-29T02:50:03.562Z,100.00
2022-07-29T02:52:38.859Z,99.78
2022-07-29T02:55:20.531Z,99.82
2022-07-29T02:58:02.418Z,99.33
2022-07-29T03:00:32.465Z,98.80
2022-07-29T03:03:04.365Z,98.75
2022-07-29T03:05:32.344Z,98.58
2022-07-29T03:08:03.889Z,99.17
2022-07-29T03:10:32.089Z,98.95
2022-07-29T03:13:00.735Z,99.59
2022-07-29T03:15:28.190Z,99.83
2022-07-29T03:17:56.592Z,99.49
2022-07-29T03:20:23.981Z,98.59
2022-07-29T03:22:51.081Z,98.87
2022-07-29T03:25:20.003Z,98.23
2022-07-29T03:27:48.176Z,97.97
2022-07-29T03:30:21.746Z,98.71
2022-07-29T03:32:52.223Z,99.39
2022-07-29T03:35:20.625Z,99.58
2022-07-29T03:37:47.743Z,99.19
2022-07-29T03:40:20.842Z,98.53
2022-07-29T03:42:49.468Z,97.79
2022-07-29T03:45:19.695Z,97.69
2022-07-29T03:48:01.198Z,97.56
2022-07-29T03:50:29.934Z,96.87
2022-07-29T03:52:56.848Z,97.00
2022-07-29T03:55:24.421Z,97.10
2022-07-29T03:57:53.324Z,96.71
2022-07-29T04:00:20.553Z,96.70
2022-07-29T04:02:49.434Z,96.03
2022-07-29T04:05:17.339Z,95.68
2022-07-29T04:07:47.961Z,95.29
2022-07-29T04:10:16.648Z,95.40
2022-07-29T04:12:43.712Z,94.99
2022-07-29T04:15:11.031Z,95.02
2022-07-29T04:17:37.931Z,93.94
2022-07-29T04:20:05.613Z,93.55
2022-07-29T04:22:32.332Z,92.80
2022-07-29T04:25:03.357Z,93.98
2022-07-29T04:27:30.843Z,95.14
2022-07-29T04:29:57.797Z,96.13
2022-07-29T04:32:25.751Z,95.45
2022-07-29T04:34:52.429Z,94.88
2022-07-29T04:37:19.273Z,95.13
2022-07-29T04:39:45.919Z,94.53
2022-07-29T04:42:12.597Z,94.18
2022-07-29T04:44:42.840Z,94.37
2022-07-29T04:47:10.155Z,95.67
2022-07-29T04:49:39.567Z,95.90
2022-07-29T04:52:07.594Z,96.00
2022-07-29T04:54:34.490Z,95.08
2022-07-29T04:57:01.183Z,94.75
2022-07-29T04:59:28.039Z,93.70
2022-07-29T05:01:54.958Z,93.66
2022-07-29T05:04:21.754Z,92.36
2022-07-29T05:06:48.844Z,92.71
2022-07-29T05:09:15.629Z,91.38
2022-07-29T05:11:42.334Z,90.70
2022-07-29T05:14:09.088Z,90.87
2022-07-29T05:16:36.096Z,90.77
2022-07-29T05:19:02.809Z,92.20
2022-07-29T05:21:29.517Z,92.31
2022-07-29T05:23:56.308Z,91.94
2022-07-29T05:26:23.157Z,90.85
2022-07-29T05:28:50.090Z,89.18
2022-07-29T05:31:16.851Z,87.40
2022-07-29T05:33:43.654Z,86.79
2022-07-29T05:36:10.476Z,86.83
2022-07-29T05:38:37.525Z,85.79
2022-07-29T05:41:07.742Z,85.86
2022-07-29T05:43:34.451Z,84.91
2022-07-29T05:46:01.484Z,83.10
2022-07-29T05:48:28.303Z,81.51
2022-07-29T05:50:55.781Z,82.55
2022-07-29T05:53:22.781Z,73.18
2022-07-29T05:55:49.885Z,63.78
2022-07-29T05:58:17.143Z,60.72
2022-07-29T06:00:44.180Z,52.35
2022-07-29T06:03:10.861Z,50.99
2022-07-29T06:05:37.936Z,50.35
2022-07-29T06:08:06.759Z,53.22
2022-07-29T06:10:33.782Z,54.60
2022-07-29T06:13:00.572Z,55.47
2022-07-29T06:15:27.429Z,53.34
2022-07-29T06:17:59.048Z,52.88
2022-07-29T06:20:27.796Z,54.07
2022-07-29T06:22:54.532Z,50.61
2022-07-29T06:25:21.313Z,44.95
2022-07-29T06:27:47.997Z,45.69
2022-07-29T06:30:14.930Z,42.78
2022-07-29T06:32:43.316Z,45.73
2022-07-29T06:35:38.346Z,48.12
2022-07-29T06:37:59.512Z,45.68
2022-07-29T06:40:45.739Z,43.24
2022-07-29T06:43:12.529Z,47.37
2022-07-29T06:45:42.283Z,51.03
2022-07-29T06:48:10.497Z,52.70
2022-07-29T06:50:37.224Z,55.81
2022-07-29T06:53:05.081Z,58.15
2022-07-29T06:55:31.870Z,59.15
2022-07-29T06:57:58.517Z,58.67
2022-07-29T07:00:26.299Z,59.92
2022-07-29T07:02:53.050Z,58.38
2022-07-29T07:05:19.786Z,59.38
2022-07-29T07:07:46.499Z,62.27
2022-07-29T07:10:13.204Z,64.57
2022-07-29T07:12:39.894Z,64.01
2022-07-29T07:15:07.186Z,63.50
2022-07-29T07:17:33.929Z,64.74
2022-07-29T07:20:00.618Z,66.43
2022-07-29T07:22:27.308Z,68.78
2022-07-29T07:24:53.946Z,69.78
2022-07-29T07:27:20.650Z,68.34
2022-07-29T07:29:47.357Z,66.16
2022-07-29T07:32:14.518Z,65.38
2022-07-29T07:34:41.392Z,64.04
2022-07-29T07:37:08.128Z,62.44
2022-07-29T07:39:34.885Z,62.37
2022-07-29T07:42:01.667Z,65.74
2022-07-29T07:44:28.391Z,67.77
2022-07-29T07:46:55.171Z,68.81
2022-07-29T07:49:22.264Z,68.94
2022-07-29T07:51:50.680Z,70.25
2022-07-29T07:54:18.922Z,68.76
2022-07-29T07:56:50.321Z,67.68
2022-07-29T07:59:20.215Z,69.33
2022-07-29T08:01:48.193Z,69.99
2022-07-29T08:04:27.681Z,70.24
2022-07-29T08:06:56.483Z,70.35
2022-07-29T08:09:29.666Z,70.59
2022-07-29T08:11:59.134Z,69.77
2022-07-29T08:14:26.078Z,67.98
2022-07-29T08:16:52.858Z,67.94
2022-07-29T08:19:19.685Z,69.66
2022-07-29T08:21:46.544Z,71.66
2022-07-29T08:24:32.090Z,72.44
2022-07-29T08:26:59.188Z,71.23
2022-07-29T08:29:25.934Z,72.23
2022-07-29T08:31:52.898Z,72.03
2022-07-29T08:34:19.776Z,71.52
2022-07-29T08:36:54.434Z,70.93
2022-07-29T08:39:21.101Z,70.80
2022-07-29T08:41:57.186Z,71.06
2022-07-29T08:44:29.724Z,69.70
2022-07-29T08:46:57.926Z,70.33
2022-07-29T08:49:24.679Z,69.24
2022-07-29T08:51:52.558Z,71.44
2022-07-29T08:54:19.860Z,71.21
2022-07-29T08:56:50.911Z,71.39
2022-07-29T08:59:22.068Z,71.54
2022-07-29T09:01:53.680Z,71.52
2022-07-29T09:04:21.930Z,71.58
2022-07-29T09:06:52.208Z,71.50
2022-07-29T09:09:19.129Z,71.43
2022-07-29T09:11:45.924Z,71.85
2022-07-29T09:14:14.310Z,73.03
2022-07-29T09:16:57.854Z,72.76
2022-07-29T09:19:34.402Z,72.25
2022-07-29T09:22:03.859Z,70.17
2022-07-29T09:24:48.226Z,70.47
2022-07-29T09:27:23.458Z,70.06
2022-07-29T09:30:11.576Z,72.22
2022-07-29T09:32:59.216Z,71.10
2022-07-29T09:35:27.010Z,69.11
2022-07-29T09:37:53.920Z,66.81
2022-07-29T09:40:26.391Z,65.00
2022-07-29T09:42:56.483Z,66.37
2022-07-29T09:45:34.153Z,68.30
2022-07-29T09:48:15.066Z,66.36
2022-07-29T09:50:44.981Z,68.56
2022-07-29T09:53:12.335Z,68.16
2022-07-29T09:55:52.204Z,70.51
2022-07-29T09:58:23.561Z,70.95
2022-07-29T10:00:51.833Z,72.16
2022-07-29T10:03:19.043Z,67.88
2022-07-29T10:05:46.830Z,66.46
2022-07-29T10:08:13.861Z,64.83
2022-07-29T10:10:44.522Z,62.30
2022-07-29T10:13:16.402Z,61.07
2022-07-29T10:15:46.056Z,58.93
2022-07-29T10:18:14.994Z,56.18
2022-07-29T10:20:42.431Z,54.16
2022-07-29T10:23:10.227Z,51.09
2022-07-29T10:25:37.101Z,48.80
2022-07-29T10:28:04.061Z,49.27
2022-07-29T10:30:32.179Z,45.93
2022-07-29T10:33:26.902Z,43.44
2022-07-29T10:36:02.605Z,41.81
2022-07-29T10:38:45.958Z,43.02
2022-07-29T10:41:43.567Z,42.40
2022-07-29T10:44:19.320Z,46.66
2022-07-29T10:46:51.534Z,44.53
2022-07-29T10:49:18.323Z,45.62
2022-07-29T10:51:51.200Z,44.96
2022-07-29T10:54:19.240Z,41.99
2022-07-29T10:56:47.664Z,43.24
2022-07-29T10:59:21.558Z,44.22
2022-07-29T11:01:53.657Z,44.58
2022-07-29T11:04:45.801Z,45.92
2022-07-29T11:07:15.169Z,42.47
2022-07-29T11:09:41.972Z,45.04
2022-07-29T11:12:39.380Z,46.50
2022-07-29T11:15:09.108Z,46.37
2022-07-29T11:17:54.379Z,47.30
2022-07-29T11:20:49.919Z,48.33
2022-07-29T11:23:24.446Z,49.86
2022-07-29T11:26:28.225Z,47.76
2022-07-29T11:29:04.536Z,47.98
2022-07-29T11:31:47.191Z,48.14
2022-07-29T11:34:18.286Z,50.64
2022-07-29T11:37:13.822Z,47.62
2022-07-29T11:39:47.955Z,45.98
2022-07-29T11:42:17.728Z,43.04
2022-07-29T11:48:03.467Z,40.53
2022-07-29T11:50:45.782Z,37.75
2022-07-29T11:53:15.377Z,37.82
2022-07-29T11:55:51.057Z,36.22
2022-07-29T11:58:25.078Z,36.26
2022-07-29T12:00:52.855Z,35.99
2022-07-29T12:03:35.157Z,34.41
2022-07-29T12:06:12.313Z,34.79
2022-07-29T12:08:43.829Z,35.06
2022-07-29T12:11:22.501Z,35.48
2022-07-29T12:13:51.805Z,36.70
2022-07-29T12:16:25.970Z,36.68
2022-07-29T12:19:02.352Z,37.78
2022-07-29T12:21:56.266Z,39.05
2022-07-29T12:24:26.701Z,39.38
2022-07-29T12:26:56.569Z,38.77
2022-07-29T12:29:33.982Z,39.37
2022-07-29T12:32:04.654Z,39.54
2022-07-29T12:34:32.186Z,40.11
2022-07-29T12:36:59.192Z,40.01
2022-07-29T12:39:28.900Z,39.80
2022-07-29T12:42:04.091Z,39.80
2022-07-29T12:44:52.405Z,40.66
2022-07-29T12:47:20.394Z,46.27
2022-07-29T12:49:47.960Z,52.30
2022-07-29T12:52:26.540Z,52.82
2022-07-29T12:54:53.283Z,56.95
2022-07-29T12:57:20.436Z,56.87
2022-07-29T13:00:04.954Z,58.19
2022-07-29T13:02:31.779Z,58.91
2022-07-29T13:05:00.470Z,62.16
2022-07-29T13:07:54.430Z,63.79
2022-07-29T13:10:24.321Z,65.15
2022-07-29T13:13:12.719Z,67.22
2022-07-29T13:15:42.101Z,67.68
2022-07-29T13:18:28.254Z,67.07
2022-07-29T13:20:55.712Z,68.27
2022-07-29T13:23:22.428Z,67.02
2022-07-29T13:25:49.190Z,67.47
2022-07-29T13:28:15.874Z,66.37
2022-07-29T13:30:44.530Z,66.42
2022-07-29T13:33:11.898Z,68.42
2022-07-29T13:35:40.039Z,69.28
2022-07-29T13:38:06.962Z,69.13
2022-07-29T13:40:36.225Z,68.85
2022-07-29T13:43:02.941Z,67.73
2022-07-29T13:45:30.803Z,68.58
2022-07-29T13:47:57.461Z,68.57
2022-07-29T13:50:24.232Z,67.17
2022-07-29T13:52:51.867Z,69.27
2022-07-29T13:55:18.951Z,67.06
2022-07-29T13:57:45.906Z,69.06
2022-07-29T14:00:13.801Z,67.89
2022-07-29T14:02:40.500Z,68.09
2022-07-29T14:05:08.926Z,66.00
2022-07-29T14:07:35.779Z,68.90
2022-07-29T14:10:02.706Z,71.13
2022-07-29T14:12:29.582Z,72.05
2022-07-29T14:14:56.244Z,72.53
2022-07-29T14:17:23.720Z,71.86
2022-07-29T14:19:50.441Z,73.92
2022-07-29T14:22:19.888Z,73.73
2022-07-29T14:24:49.793Z,73.90
2022-07-29T14:27:16.537Z,71.95
2022-07-29T14:29:43.500Z,71.14
2022-07-29T14:32:11.519Z,71.21
2022-07-29T14:34:39.014Z,72.16
2022-07-29T14:37:06.941Z,71.77
2022-07-29T14:39:42.677Z,72.09
2022-07-29T14:42:11.573Z,72.65
2022-07-29T14:44:40.491Z,70.49
2022-07-29T14:47:08.406Z,72.29
2022-07-29T14:49:35.983Z,72.54
2022-07-29T14:52:03.418Z,74.82
2022-07-29T14:54:30.090Z,75.16
2022-07-29T14:56:58.490Z,75.08
2022-07-29T14:59:26.935Z,76.07
2022-07-29T15:01:53.798Z,75.96
2022-07-29T15:04:21.111Z,75.59
2022-07-29T15:06:48.278Z,73.15
2022-07-29T15:09:14.993Z,72.21
2022-07-29T15:11:41.729Z,71.51
2022-07-29T15:14:08.726Z,71.78
2022-07-29T15:16:46.694Z,72.86
2022-07-29T15:19:14.961Z,71.17
2022-07-29T15:21:48.787Z,71.11
2022-07-29T15:24:26.196Z,70.27
2022-07-29T15:26:52.941Z,70.37
2022-07-29T15:29:20.230Z,69.63
2022-07-29T15:31:46.955Z,68.67
2022-07-29T15:34:13.778Z,68.21
2022-07-29T15:36:56.305Z,66.77
2022-07-29T15:39:23.315Z,66.00
2022-07-29T15:41:50.792Z,66.30
2022-07-29T15:44:18.150Z,68.81
2022-07-29T15:47:03.636Z,68.94
2022-07-29T15:49:48.368Z,67.02
2022-07-29T15:52:25.171Z,66.79
2022-07-29T15:54:54.162Z,67.91
2022-07-29T15:57:20.864Z,65.41
2022-07-29T15:59:47.574Z,65.17
2022-07-29T16:02:14.262Z,65.77
2022-07-29T16:04:41.202Z,63.37
2022-07-29T16:07:08.004Z,60.17
2022-07-29T16:09:34.731Z,57.05
2022-07-29T16:12:01.462Z,55.33
2022-07-29T16:14:28.800Z,53.33
2022-07-29T16:16:56.532Z,52.91
2022-07-29T16:19:23.598Z,52.62
2022-07-29T16:21:50.306Z,52.75
2022-07-29T16:24:17.035Z,51.48
2022-07-29T16:26:43.720Z,52.12
2022-07-29T16:29:10.480Z,52.22
2022-07-29T16:31:37.254Z,53.25
2022-07-29T16:34:04.118Z,53.38
2022-07-29T16:36:31.354Z,54.43
2022-07-29T16:38:58.033Z,55.29
2022-07-29T16:41:24.716Z,56.21
2022-07-29T16:43:51.366Z,57.47
2022-07-29T16:46:18.814Z,58.07
2022-07-29T16:48:46.418Z,58.46
2022-07-29T16:51:14.244Z,56.05
2022-07-29T16:53:41.766Z,56.73
2022-07-29T16:56:11.241Z,56.14
2022-07-29T16:58:43.509Z,57.18
2022-07-29T17:01:11.168Z,57.92
2022-07-29T17:04:00.115Z,61.16
2022-07-29T17:06:28.646Z,61.41
2022-07-29T17:08:56.633Z,60.95
2022-07-29T17:11:51.847Z,62.40
2022-07-29T17:14:10.578Z,63.63
2022-07-29T17:16:37.466Z,64.96
2022-07-29T17:19:04.477Z,62.32
2022-07-29T17:21:31.403Z,61.32
2022-07-29T17:23:59.482Z,60.06
2022-07-29T17:26:28.226Z,58.22
2022-07-29T17:28:55.965Z,57.05
2022-07-29T17:31:23.425Z,56.14
2022-07-29T17:33:50.345Z,55.88
2022-07-29T17:36:26.921Z,55.49
2022-07-29T17:38:56.332Z,56.17
2022-07-29T17:41:24.274Z,55.93
2022-07-29T17:43:51.407Z,55.22
2022-07-29T17:46:19.153Z,55.13
2022-07-29T17:48:45.997Z,54.91
2022-07-29T17:51:12.846Z,55.25
2022-07-29T17:53:40.026Z,54.51
2022-07-29T17:56:07.060Z,54.87
2022-07-29T17:58:34.561Z,55.32
2022-07-29T18:01:01.294Z,54.59
2022-07-29T18:03:28.042Z,54.38
2022-07-29T18:05:54.737Z,54.80
2022-07-29T18:08:21.378Z,55.02
2022-07-29T18:10:48.173Z,55.34
2022-07-29T18:13:16.364Z,55.71
2022-07-29T18:15:45.236Z,55.78
2022-07-29T18:18:13.424Z,56.32
2022-07-29T18:20:41.068Z,56.95
2022-07-29T18:23:07.765Z,57.59
2022-07-29T18:25:34.673Z,57.76
2022-07-29T18:28:01.517Z,58.44
2022-07-29T18:30:29.722Z,59.25
2022-07-29T18:33:19.742Z,59.35
2022-07-29T18:35:44.734Z,59.71
2022-07-29T18:38:11.541Z,60.08
2022-07-29T18:40:40.031Z,60.64
2022-07-29T18:43:07.247Z,61.05
2022-07-29T18:45:34.152Z,61.96
2022-07-29T18:48:02.241Z,61.68
2022-07-29T18:50:30.014Z,61.93
2022-07-29T18:52:58.661Z,62.63
2022-07-29T18:55:26.191Z,62.54
2022-07-29T18:57:54.301Z,62.90
2022-07-29T19:00:22.767Z,63.23
2022-07-29T19:02:49.941Z,63.33
2022-07-29T19:05:16.692Z,63.81
2022-07-29T19:07:43.615Z,64.40
2022-07-29T19:10:11.213Z,64.69
2022-07-29T19:12:38.002Z,65.01
2022-07-29T19:15:04.944Z,65.11
2022-07-29T19:17:31.608Z,65.75
2022-07-29T19:19:58.312Z,65.88
2022-07-29T19:22:25.057Z,66.24
2022-07-29T19:24:51.816Z,66.53
2022-07-29T19:27:18.879Z,67.03
2022-07-29T19:29:45.896Z,67.33
2022-07-29T19:32:13.485Z,67.95
2022-07-29T19:35:10.381Z,68.42
2022-07-29T19:37:37.458Z,68.01
2022-07-29T19:40:05.666Z,68.65
2022-07-29T19:42:32.459Z,68.64
2022-07-29T19:44:59.197Z,68.78
2022-07-29T19:47:25.988Z,69.36
2022-07-29T19:49:52.784Z,69.39
2022-07-29T19:52:19.511Z,69.99
2022-07-29T19:54:46.268Z,70.24
2022-07-29T19:57:13.012Z,70.44
2022-07-29T19:59:41.165Z,70.47
2022-07-29T20:02:10.888Z,70.92
2022-07-29T20:04:38.670Z,71.67
2022-07-29T20:07:06.615Z,72.53
2022-07-29T20:09:33.415Z,72.24
2022-07-29T20:12:00.345Z,73.46
2022-07-29T20:14:27.042Z,73.09
2022-07-29T20:16:54.369Z,73.26
2022-07-29T20:19:21.427Z,73.65
2022-07-29T20:21:48.227Z,74.08
2022-07-29T20:24:14.970Z,74.19
2022-07-29T20:26:41.740Z,74.22
2022-07-29T20:29:09.084Z,74.91
2022-07-29T20:31:36.034Z,75.15
2022-07-29T20:34:04.192Z,75.21
2022-07-29T20:36:31.067Z,75.42
2022-07-29T20:38:59.950Z,75.26
2022-07-29T20:41:27.233Z,75.54
2022-07-29T20:43:53.978Z,75.31
2022-07-29T20:46:21.234Z,75.93
2022-07-29T20:48:48.153Z,75.83
2022-07-29T20:51:14.986Z,76.27
2022-07-29T20:53:41.833Z,75.90
2022-07-29T20:56:08.794Z,75.80
2022-07-29T20:58:36.534Z,75.98
2022-07-29T21:01:04.115Z,76.07
2022-07-29T21:03:31.606Z,76.47
2022-07-29T21:05:59.514Z,76.71
2022-07-29T21:08:27.237Z,76.83
2022-07-29T21:10:54.710Z,77.53
2022-07-29T21:13:22.974Z,77.64
2022-07-29T21:15:51.693Z,77.83
2022-07-29T21:18:32.666Z,77.89
2022-07-29T21:21:00.871Z,77.89
2022-07-29T21:23:28.170Z,78.23
2022-07-29T21:25:55.231Z,78.23
2022-07-29T21:28:40.813Z,78.44
2022-07-29T21:31:14.822Z,79.95
2022-07-29T21:33:45.887Z,80.41
2022-07-29T21:36:47.661Z,79.72
2022-07-29T21:39:06.736Z,79.97
2022-07-29T21:41:34.291Z,80.21
2022-07-29T21:44:01.442Z,80.27
2022-07-29T21:46:28.385Z,80.10
2022-07-29T21:48:55.138Z,80.44
2022-07-29T21:51:22.054Z,80.67
2022-07-29T21:53:48.822Z,81.04
2022-07-29T21:56:15.569Z,81.44
2022-07-29T21:58:44.791Z,82.37
2022-07-29T22:01:11.555Z,82.42
2022-07-29T22:03:38.351Z,82.84
2022-07-29T22:06:05.059Z,82.76
2022-07-29T22:08:31.722Z,82.79
2022-07-29T22:10:58.363Z,83.17
2022-07-29T22:13:25.032Z,83.29
2022-07-29T22:15:51.822Z,84.52
2022-07-29T22:18:20.634Z,84.54
2022-07-29T22:20:49.489Z,85.13
2022-07-29T22:23:16.215Z,86.07
2022-07-29T22:25:43.030Z,87.22
2022-07-29T22:28:09.782Z,87.97
2022-07-29T22:30:36.526Z,88.83
2022-07-29T22:33:03.262Z,88.93
2022-07-29T22:35:29.971Z,89.44
2022-07-29T22:37:56.652Z,89.98
2022-07-29T22:40:23.397Z,90.24
2022-07-29T22:42:57.517Z,90.36
2022-07-29T22:45:24.335Z,90.16
2022-07-29T22:47:57.498Z,89.69
2022-07-29T22:50:26.571Z,89.29
2022-07-29T22:52:53.248Z,89.53
2022-07-29T22:55:20.137Z,89.39
2022-07-29T22:57:46.868Z,89.37
2022-07-29T23:00:14.166Z,89.28
2022-07-29T23:02:41.501Z,89.10
2022-07-29T23:05:11.580Z,89.79
2022-07-29T23:07:38.580Z,89.98
2022-07-29T23:10:05.758Z,90.29
2022-07-29T23:12:32.426Z,90.92
2022-07-29T23:14:59.111Z,91.41
2022-07-29T23:17:25.903Z,91.29
2022-07-29T23:19:52.581Z,91.30
2022-07-29T23:22:19.276Z,91.04
2022-07-29T23:24:45.988Z,91.74
2022-07-29T23:27:12.768Z,91.74
2022-07-29T23:29:40.148Z,91.25
2022-07-29T23:32:07.006Z,91.03
2022-07-29T23:34:33.673Z,91.32
2022-07-29T23:37:00.567Z,91.02
2022-07-29T23:39:27.482Z,91.43
2022-07-29T23:41:54.136Z,91.61
2022-07-29T23:44:20.984Z,91.31
2022-07-29T23:46:47.694Z,91.61
2022-07-29T23:49:14.561Z,91.00
2022-07-29T23:51:41.289Z,90.59
2022-07-29T23:54:08.017Z,91.90
2022-07-29T23:56:34.667Z,91.79
2022-07-29T23:59:01.289Z,92.24
